EKSP/SKS METAR and TAF weather

Enter ICAO airport designator
Station Type Date Time Source
EKSP METAR 2019/06/20 06:50 UTC NOAA

EKSP 200650Z 23009KT 9999 SCT012 BKN050 18/16 Q1006 TEMPO 4000 SHRA BR BKN006 BKN040CB


Station Type Date Time Source
EKSP Decoded METAR 2019/06/20 06:50 UTC NOAA

Skrydstrup, Denmark (EKSP) 55-14N 009-16E 47M
Jun 20, 2019 - 02:50 AM EDT / 2019.06.20 0650 UTC
Wind: from the SW (230 degrees) at 10 MPH (9 KT):0
Visibility: greater than 7 mile(s):0
Sky conditions: mostly cloudy
Weather: Cumulonimbus clouds observed
Temperature: 64 F (18 C)
Dew Point: 60 F (16 C)
Relative Humidity: 88%
Pressure (altimeter): 29.71 in. Hg (1006 hPa)
ob: EKSP 200650Z 23009KT 9999 SCT012 BKN050 18/16 Q1006 TEMPO 4000 SHRA BR BKN006 BKN040CB
cycle: 7

Station Type Date Time Source
EKSP TAF 2019/06/20 06:30 UTC NOAA

TAF EKSP 200448Z 2006/2106 23010KT 9999 SCT050 SCT100
TEMPO 2006/2009 4000 SHRA BR BKN005 BKN030CB
BECMG 2008/2009 26012KT
TEMPO 2009/2011 BKN008
TEMPO 2022/2106 6000 BKN012

Example: see airport list